sensor_id;sensor_type;location;lat;lon;timestamp;P1;durP1;ratioP1;P2;durP2;ratioP2
12122;SDS011;6125;59.628;17.852;2024-03-06T00:00:32;4.47;;;3.17;;
12122;SDS011;6125;59.628;17.852;2024-03-06T00:03:03;5.27;;;3.70;;
12122;SDS011;6125;59.628;17.852;2024-03-06T00:05:41;5.43;;;3.63;;
12122;SDS011;6125;59.628;17.852;2024-03-06T00:08:11;5.70;;;3.70;;
12122;SDS011;6125;59.628;17.852;2024-03-06T00:10:41;5.90;;;3.80;;
12122;SDS011;6125;59.628;17.852;2024-03-06T00:13:23;6.20;;;3.87;;
12122;SDS011;6125;59.628;17.852;2024-03-06T00:15:55;6.23;;;3.87;;
12122;SDS011;6125;59.628;17.852;2024-03-06T00:18:32;6.77;;;4.03;;
12122;SDS011;6125;59.628;17.852;2024-03-06T00:21:02;6.83;;;4.17;;
12122;SDS011;6125;59.628;17.852;2024-03-06T00:23:31;8.83;;;4.53;;
12122;SDS011;6125;59.628;17.852;2024-03-06T00:26:06;7.07;;;4.00;;
12122;SDS011;6125;59.628;17.852;2024-03-06T00:28:43;8.80;;;4.63;;
12122;SDS011;6125;59.628;17.852;2024-03-06T00:31:43;9.40;;;4.43;;
12122;SDS011;6125;59.628;17.852;2024-03-06T00:34:12;6.70;;;3.80;;
12122;SDS011;6125;59.628;17.852;2024-03-06T00:37:09;11.30;;;4.60;;
12122;SDS011;6125;59.628;17.852;2024-03-06T00:39:42;6.13;;;4.20;;
12122;SDS011;6125;59.628;17.852;2024-03-06T00:42:27;7.87;;;4.77;;
12122;SDS011;6125;59.628;17.852;2024-03-06T00:44:59;10.30;;;4.23;;
12122;SDS011;6125;59.628;17.852;2024-03-06T00:47:42;11.40;;;4.67;;
12122;SDS011;6125;59.628;17.852;2024-03-06T00:50:10;6.23;;;4.30;;
12122;SDS011;6125;59.628;17.852;2024-03-06T00:52:50;8.83;;;3.70;;
12122;SDS011;6125;59.628;17.852;2024-03-06T00:55:23;9.40;;;4.27;;
12122;SDS011;6125;59.628;17.852;2024-03-06T00:58:02;9.87;;;3.90;;
12122;SDS011;6125;59.628;17.852;2024-03-06T01:00:39;7.07;;;3.93;;
12122;SDS011;6125;59.628;17.852;2024-03-06T01:03:16;6.87;;;3.97;;
12122;SDS011;6125;59.628;17.852;2024-03-06T01:05:47;10.83;;;4.83;;
12122;SDS011;6125;59.628;17.852;2024-03-06T01:08:22;7.83;;;4.27;;
12122;SDS011;6125;59.628;17.852;2024-03-06T01:10:53;8.43;;;4.80;;
12122;SDS011;6125;59.628;17.852;2024-03-06T01:13:30;10.40;;;4.17;;
12122;SDS011;6125;59.628;17.852;2024-03-06T01:16:05;6.73;;;4.57;;
12122;SDS011;6125;59.628;17.852;2024-03-06T01:18:46;6.30;;;4.10;;
12122;SDS011;6125;59.628;17.852;2024-03-06T01:21:18;8.07;;;4.00;;
12122;SDS011;6125;59.628;17.852;2024-03-06T01:23:54;6.60;;;3.90;;
12122;SDS011;6125;59.628;17.852;2024-03-06T01:26:23;9.00;;;4.73;;
12122;SDS011;6125;59.628;17.852;2024-03-06T01:29:00;6.60;;;4.27;;
12122;SDS011;6125;59.628;17.852;2024-03-06T01:31:29;10.20;;;4.30;;
12122;SDS011;6125;59.628;17.852;2024-03-06T01:34:11;8.10;;;4.00;;
12122;SDS011;6125;59.628;17.852;2024-03-06T01:36:40;10.57;;;5.37;;
12122;SDS011;6125;59.628;17.852;2024-03-06T01:39:23;9.03;;;4.03;;
12122;SDS011;6125;59.628;17.852;2024-03-06T01:41:54;9.77;;;4.97;;
12122;SDS011;6125;59.628;17.852;2024-03-06T01:44:29;7.93;;;3.80;;
12122;SDS011;6125;59.628;17.852;2024-03-06T01:47:03;8.47;;;4.60;;
12122;SDS011;6125;59.628;17.852;2024-03-06T01:49:41;8.80;;;5.20;;
12122;SDS011;6125;59.628;17.852;2024-03-06T01:52:11;8.70;;;4.60;;
12122;SDS011;6125;59.628;17.852;2024-03-06T01:54:50;9.17;;;4.40;;
12122;SDS011;6125;59.628;17.852;2024-03-06T01:57:22;5.83;;;3.70;;
12122;SDS011;6125;59.628;17.852;2024-03-06T02:00:02;7.30;;;4.40;;
12122;SDS011;6125;59.628;17.852;2024-03-06T02:02:36;6.00;;;4.33;;
12122;SDS011;6125;59.628;17.852;2024-03-06T02:05:17;8.43;;;4.37;;
12122;SDS011;6125;59.628;17.852;2024-03-06T02:07:48;8.53;;;4.93;;
12122;SDS011;6125;59.628;17.852;2024-03-06T02:10:25;7.10;;;4.27;;
12122;SDS011;6125;59.628;17.852;2024-03-06T02:12:56;8.20;;;3.97;;
12122;SDS011;6125;59.628;17.852;2024-03-06T02:15:25;7.33;;;4.27;;
12122;SDS011;6125;59.628;17.852;2024-03-06T02:18:04;10.67;;;5.07;;
12122;SDS011;6125;59.628;17.852;2024-03-06T02:20:39;8.13;;;4.07;;
12122;SDS011;6125;59.628;17.852;2024-03-06T02:23:14;8.97;;;4.63;;
12122;SDS011;6125;59.628;17.852;2024-03-06T02:25:47;9.07;;;4.50;;
12122;SDS011;6125;59.628;17.852;2024-03-06T02:28:23;8.53;;;4.93;;
12122;SDS011;6125;59.628;17.852;2024-03-06T02:30:56;9.13;;;5.07;;
12122;SDS011;6125;59.628;17.852;2024-03-06T02:33:32;10.70;;;5.07;;
12122;SDS011;6125;59.628;17.852;2024-03-06T02:36:07;6.77;;;4.47;;
12122;SDS011;6125;59.628;17.852;2024-03-06T02:38:47;8.87;;;5.07;;
12122;SDS011;6125;59.628;17.852;2024-03-06T02:41:19;8.00;;;5.30;;
12122;SDS011;6125;59.628;17.852;2024-03-06T02:43:47;8.47;;;4.40;;
12122;SDS011;6125;59.628;17.852;2024-03-06T02:46:23;8.37;;;4.90;;
12122;SDS011;6125;59.628;17.852;2024-03-06T02:48:52;7.73;;;4.67;;
12122;SDS011;6125;59.628;17.852;2024-03-06T02:51:22;8.73;;;4.17;;
12122;SDS011;6125;59.628;17.852;2024-03-06T02:53:57;5.70;;;3.77;;
12122;SDS011;6125;59.628;17.852;2024-03-06T02:56:27;5.93;;;4.03;;
12122;SDS011;6125;59.628;17.852;2024-03-06T02:58:58;10.07;;;4.43;;
12122;SDS011;6125;59.628;17.852;2024-03-06T03:01:48;12.80;;;4.73;;
12122;SDS011;6125;59.628;17.852;2024-03-06T03:04:21;8.70;;;3.53;;
12122;SDS011;6125;59.628;17.852;2024-03-06T03:06:56;8.43;;;3.87;;
12122;SDS011;6125;59.628;17.852;2024-03-06T03:09:29;6.53;;;3.63;;
12122;SDS011;6125;59.628;17.852;2024-03-06T03:12:05;6.70;;;3.60;;
12122;SDS011;6125;59.628;17.852;2024-03-06T03:14:41;6.10;;;3.73;;
12122;SDS011;6125;59.628;17.852;2024-03-06T03:17:27;10.17;;;4.27;;
12122;SDS011;6125;59.628;17.852;2024-03-06T03:20:01;10.00;;;3.67;;
12122;SDS011;6125;59.628;17.852;2024-03-06T03:23:05;5.63;;;3.70;;
12122;SDS011;6125;59.628;17.852;2024-03-06T03:26:05;11.27;;;4.37;;
12122;SDS011;6125;59.628;17.852;2024-03-06T03:28:46;6.87;;;3.37;;
12122;SDS011;6125;59.628;17.852;2024-03-06T03:31:15;9.13;;;4.23;;
12122;SDS011;6125;59.628;17.852;2024-03-06T03:34:10;6.17;;;3.90;;
12122;SDS011;6125;59.628;17.852;2024-03-06T03:36:43;7.20;;;3.87;;
12122;SDS011;6125;59.628;17.852;2024-03-06T03:39:20;7.03;;;4.50;;
12122;SDS011;6125;59.628;17.852;2024-03-06T03:41:51;9.57;;;4.30;;
12122;SDS011;6125;59.628;17.852;2024-03-06T03:44:25;7.57;;;3.60;;
12122;SDS011;6125;59.628;17.852;2024-03-06T03:46:57;5.93;;;3.87;;
12122;SDS011;6125;59.628;17.852;2024-03-06T03:49:25;6.47;;;3.50;;
12122;SDS011;6125;59.628;17.852;2024-03-06T03:52:03;5.47;;;3.40;;
12122;SDS011;6125;59.628;17.852;2024-03-06T03:54:40;5.23;;;3.57;;
12122;SDS011;6125;59.628;17.852;2024-03-06T03:57:15;8.53;;;3.67;;
12122;SDS011;6125;59.628;17.852;2024-03-06T03:59:43;5.77;;;3.57;;
12122;SDS011;6125;59.628;17.852;2024-03-06T04:02:13;5.53;;;3.30;;
12122;SDS011;6125;59.628;17.852;2024-03-06T04:04:51;4.93;;;2.97;;
12122;SDS011;6125;59.628;17.852;2024-03-06T04:07:27;9.50;;;3.77;;
12122;SDS011;6125;59.628;17.852;2024-03-06T04:10:13;8.03;;;3.20;;
12122;SDS011;6125;59.628;17.852;2024-03-06T04:12:42;6.40;;;3.87;;
12122;SDS011;6125;59.628;17.852;2024-03-06T04:15:15;10.97;;;3.90;;
12122;SDS011;6125;59.628;17.852;2024-03-06T04:17:50;6.83;;;3.43;;
12122;SDS011;6125;59.628;17.852;2024-03-06T04:20:20;6.73;;;3.17;;
12122;SDS011;6125;59.628;17.852;2024-03-06T04:22:54;6.53;;;3.70;;
12122;SDS011;6125;59.628;17.852;2024-03-06T04:25:31;7.50;;;3.40;;
12122;SDS011;6125;59.628;17.852;2024-03-06T04:27:59;6.23;;;3.00;;
12122;SDS011;6125;59.628;17.852;2024-03-06T04:30:29;4.47;;;2.93;;
12122;SDS011;6125;59.628;17.852;2024-03-06T04:33:08;6.07;;;3.27;;
12122;SDS011;6125;59.628;17.852;2024-03-06T04:35:42;5.47;;;3.10;;
12122;SDS011;6125;59.628;17.852;2024-03-06T04:38:20;7.33;;;3.40;;
12122;SDS011;6125;59.628;17.852;2024-03-06T04:40:55;7.37;;;3.03;;
12122;SDS011;6125;59.628;17.852;2024-03-06T04:43:30;6.67;;;3.17;;
12122;SDS011;6125;59.628;17.852;2024-03-06T04:46:01;5.87;;;3.10;;
12122;SDS011;6125;59.628;17.852;2024-03-06T04:48:29;4.80;;;3.17;;
12122;SDS011;6125;59.628;17.852;2024-03-06T04:51:05;6.17;;;3.53;;
12122;SDS011;6125;59.628;17.852;2024-03-06T04:53:36;6.30;;;3.40;;
12122;SDS011;6125;59.628;17.852;2024-03-06T04:56:06;5.43;;;3.23;;
12122;SDS011;6125;59.628;17.852;2024-03-06T04:58:51;6.63;;;3.27;;
12122;SDS011;6125;59.628;17.852;2024-03-06T05:01:24;7.00;;;3.60;;
12122;SDS011;6125;59.628;17.852;2024-03-06T05:03:59;5.60;;;3.33;;
12122;SDS011;6125;59.628;17.852;2024-03-06T05:06:49;6.00;;;3.57;;
12122;SDS011;6125;59.628;17.852;2024-03-06T05:09:43;8.33;;;3.17;;
12122;SDS011;6125;59.628;17.852;2024-03-06T05:12:30;8.20;;;4.03;;
12122;SDS011;6125;59.628;17.852;2024-03-06T05:15:23;8.53;;;3.07;;
12122;SDS011;6125;59.628;17.852;2024-03-06T05:18:11;5.73;;;3.13;;
12122;SDS011;6125;59.628;17.852;2024-03-06T05:24:10;7.20;;;3.50;;
12122;SDS011;6125;59.628;17.852;2024-03-06T05:27:02;6.50;;;2.83;;
12122;SDS011;6125;59.628;17.852;2024-03-06T05:29:49;8.23;;;3.57;;
12122;SDS011;6125;59.628;17.852;2024-03-06T05:32:45;7.13;;;3.03;;
12122;SDS011;6125;59.628;17.852;2024-03-06T05:35:31;8.93;;;2.97;;
12122;SDS011;6125;59.628;17.852;2024-03-06T05:38:24;11.33;;;3.63;;
12122;SDS011;6125;59.628;17.852;2024-03-06T05:41:10;6.90;;;3.33;;
12122;SDS011;6125;59.628;17.852;2024-03-06T05:44:06;6.37;;;3.80;;
12122;SDS011;6125;59.628;17.852;2024-03-06T05:46:53;4.23;;;2.73;;
12122;SDS011;6125;59.628;17.852;2024-03-06T05:49:50;2.77;;;2.17;;
12122;SDS011;6125;59.628;17.852;2024-03-06T05:52:39;2.90;;;2.33;;
12122;SDS011;6125;59.628;17.852;2024-03-06T05:55:35;3.23;;;2.60;;
12122;SDS011;6125;59.628;17.852;2024-03-06T05:58:20;4.20;;;2.20;;
12122;SDS011;6125;59.628;17.852;2024-03-06T06:01:16;6.33;;;2.97;;
12122;SDS011;6125;59.628;17.852;2024-03-06T06:03:58;4.43;;;2.60;;
12122;SDS011;6125;59.628;17.852;2024-03-06T06:06:30;3.03;;;2.00;;
12122;SDS011;6125;59.628;17.852;2024-03-06T06:09:12;5.23;;;2.60;;
12122;SDS011;6125;59.628;17.852;2024-03-06T06:11:46;4.73;;;2.80;;
12122;SDS011;6125;59.628;17.852;2024-03-06T06:14:21;5.17;;;2.93;;
12122;SDS011;6125;59.628;17.852;2024-03-06T06:16:53;5.53;;;2.50;;
12122;SDS011;6125;59.628;17.852;2024-03-06T06:19:30;5.30;;;2.60;;
12122;SDS011;6125;59.628;17.852;2024-03-06T06:21:58;6.03;;;2.33;;
12122;SDS011;6125;59.628;17.852;2024-03-06T06:24:35;4.73;;;2.83;;
12122;SDS011;6125;59.628;17.852;2024-03-06T06:27:03;7.77;;;3.33;;
12122;SDS011;6125;59.628;17.852;2024-03-06T06:29:37;7.10;;;2.60;;
12122;SDS011;6125;59.628;17.852;2024-03-06T06:32:17;4.40;;;2.67;;
12122;SDS011;6125;59.628;17.852;2024-03-06T06:34:50;9.63;;;3.03;;
12122;SDS011;6125;59.628;17.852;2024-03-06T06:37:24;3.13;;;2.53;;
12122;SDS011;6125;59.628;17.852;2024-03-06T06:39:53;4.87;;;2.70;;
12122;SDS011;6125;59.628;17.852;2024-03-06T06:42:21;5.30;;;2.83;;
12122;SDS011;6125;59.628;17.852;2024-03-06T06:45:00;6.50;;;2.67;;
12122;SDS011;6125;59.628;17.852;2024-03-06T06:47:29;4.33;;;2.10;;
12122;SDS011;6125;59.628;17.852;2024-03-06T06:50:09;5.03;;;2.70;;
12122;SDS011;6125;59.628;17.852;2024-03-06T06:52:39;8.53;;;2.50;;
12122;SDS011;6125;59.628;17.852;2024-03-06T06:55:14;4.97;;;2.40;;
12122;SDS011;6125;59.628;17.852;2024-03-06T06:57:42;13.67;;;2.70;;
12122;SDS011;6125;59.628;17.852;2024-03-06T07:00:11;4.40;;;2.27;;
12122;SDS011;6125;59.628;17.852;2024-03-06T07:02:52;3.73;;;2.30;;
12122;SDS011;6125;59.628;17.852;2024-03-06T07:05:41;4.23;;;2.00;;
12122;SDS011;6125;59.628;17.852;2024-03-06T07:08:17;2.60;;;2.00;;
12122;SDS011;6125;59.628;17.852;2024-03-06T07:10:51;6.27;;;2.20;;
12122;SDS011;6125;59.628;17.852;2024-03-06T07:13:27;3.67;;;2.33;;
12122;SDS011;6125;59.628;17.852;2024-03-06T07:15:58;6.20;;;2.57;;
12122;SDS011;6125;59.628;17.852;2024-03-06T07:18:26;3.23;;;2.27;;
12122;SDS011;6125;59.628;17.852;2024-03-06T07:21:03;3.80;;;2.40;;
12122;SDS011;6125;59.628;17.852;2024-03-06T07:23:34;4.03;;;2.43;;
12122;SDS011;6125;59.628;17.852;2024-03-06T07:26:10;4.93;;;2.20;;
12122;SDS011;6125;59.628;17.852;2024-03-06T07:28:38;5.70;;;2.47;;
12122;SDS011;6125;59.628;17.852;2024-03-06T07:31:14;4.80;;;1.93;;
12122;SDS011;6125;59.628;17.852;2024-03-06T07:33:51;4.50;;;2.40;;
12122;SDS011;6125;59.628;17.852;2024-03-06T07:36:21;9.27;;;2.20;;
12122;SDS011;6125;59.628;17.852;2024-03-06T07:39:05;3.77;;;2.40;;
12122;SDS011;6125;59.628;17.852;2024-03-06T07:41:33;6.27;;;2.57;;
12122;SDS011;6125;59.628;17.852;2024-03-06T07:44:03;4.33;;;2.30;;
12122;SDS011;6125;59.628;17.852;2024-03-06T07:46:39;5.20;;;3.03;;
12122;SDS011;6125;59.628;17.852;2024-03-06T07:49:07;3.43;;;2.33;;
12122;SDS011;6125;59.628;17.852;2024-03-06T07:51:38;3.37;;;2.10;;
12122;SDS011;6125;59.628;17.852;2024-03-06T07:54:13;3.67;;;2.57;;
12122;SDS011;6125;59.628;17.852;2024-03-06T07:56:47;8.60;;;2.47;;
12122;SDS011;6125;59.628;17.852;2024-03-06T07:59:22;6.80;;;2.40;;
12122;SDS011;6125;59.628;17.852;2024-03-06T08:01:54;7.97;;;2.50;;
12122;SDS011;6125;59.628;17.852;2024-03-06T08:04:22;7.10;;;2.50;;
12122;SDS011;6125;59.628;17.852;2024-03-06T08:06:59;2.63;;;2.07;;
12122;SDS011;6125;59.628;17.852;2024-03-06T08:09:27;7.20;;;2.60;;
12122;SDS011;6125;59.628;17.852;2024-03-06T08:11:58;5.13;;;1.97;;
12122;SDS011;6125;59.628;17.852;2024-03-06T08:14:33;8.83;;;2.37;;
12122;SDS011;6125;59.628;17.852;2024-03-06T08:17:05;2.30;;;1.77;;
12122;SDS011;6125;59.628;17.852;2024-03-06T08:19:33;4.17;;;2.27;;
12122;SDS011;6125;59.628;17.852;2024-03-06T08:22:17;4.70;;;2.43;;
12122;SDS011;6125;59.628;17.852;2024-03-06T08:24:45;2.47;;;1.97;;
12122;SDS011;6125;59.628;17.852;2024-03-06T08:27:25;3.13;;;1.70;;
12122;SDS011;6125;59.628;17.852;2024-03-06T08:29:56;5.97;;;2.23;;
12122;SDS011;6125;59.628;17.852;2024-03-06T08:32:58;4.60;;;1.67;;
12122;SDS011;6125;59.628;17.852;2024-03-06T08:35:37;6.93;;;2.33;;
12122;SDS011;6125;59.628;17.852;2024-03-06T08:38:09;3.80;;;1.77;;
12122;SDS011;6125;59.628;17.852;2024-03-06T08:40:44;3.70;;;2.00;;
12122;SDS011;6125;59.628;17.852;2024-03-06T08:43:18;4.23;;;2.30;;
12122;SDS011;6125;59.628;17.852;2024-03-06T08:45:58;3.77;;;2.03;;
12122;SDS011;6125;59.628;17.852;2024-03-06T08:48:48;7.23;;;1.83;;
12122;SDS011;6125;59.628;17.852;2024-03-06T08:51:34;5.83;;;2.23;;
12122;SDS011;6125;59.628;17.852;2024-03-06T08:54:03;7.73;;;2.37;;
12122;SDS011;6125;59.628;17.852;2024-03-06T08:56:42;4.80;;;2.37;;
12122;SDS011;6125;59.628;17.852;2024-03-06T08:59:13;3.97;;;2.27;;
12122;SDS011;6125;59.628;17.852;2024-03-06T09:01:51;3.40;;;1.73;;
12122;SDS011;6125;59.628;17.852;2024-03-06T09:04:22;5.93;;;2.10;;
12122;SDS011;6125;59.628;17.852;2024-03-06T09:06:56;4.70;;;2.03;;
12122;SDS011;6125;59.628;17.852;2024-03-06T09:09:27;3.80;;;2.20;;
12122;SDS011;6125;59.628;17.852;2024-03-06T09:11:55;8.37;;;2.00;;
12122;SDS011;6125;59.628;17.852;2024-03-06T09:14:30;7.37;;;2.30;;
12122;SDS011;6125;59.628;17.852;2024-03-06T09:17:04;3.33;;;1.90;;
12122;SDS011;6125;59.628;17.852;2024-03-06T09:19:40;4.87;;;2.10;;
12122;SDS011;6125;59.628;17.852;2024-03-06T09:22:12;5.10;;;2.07;;
12122;SDS011;6125;59.628;17.852;2024-03-06T09:24:50;8.93;;;2.00;;
12122;SDS011;6125;59.628;17.852;2024-03-06T09:27:18;3.00;;;1.90;;
12122;SDS011;6125;59.628;17.852;2024-03-06T09:29:55;8.93;;;2.37;;
12122;SDS011;6125;59.628;17.852;2024-03-06T09:32:26;3.73;;;1.67;;
12122;SDS011;6125;59.628;17.852;2024-03-06T09:34:54;4.37;;;2.20;;
12122;SDS011;6125;59.628;17.852;2024-03-06T09:37:30;2.27;;;1.70;;
12122;SDS011;6125;59.628;17.852;2024-03-06T09:40:01;6.97;;;2.20;;
12122;SDS011;6125;59.628;17.852;2024-03-06T09:42:39;7.33;;;1.97;;
12122;SDS011;6125;59.628;17.852;2024-03-06T09:45:12;8.17;;;2.67;;
12122;SDS011;6125;59.628;17.852;2024-03-06T09:47:47;8.00;;;2.00;;
12122;SDS011;6125;59.628;17.852;2024-03-06T09:50:24;6.43;;;2.00;;
12122;SDS011;6125;59.628;17.852;2024-03-06T09:53:03;3.97;;;1.93;;
12122;SDS011;6125;59.628;17.852;2024-03-06T09:55:40;8.17;;;2.30;;
12122;SDS011;6125;59.628;17.852;2024-03-06T09:58:14;3.27;;;2.00;;
12122;SDS011;6125;59.628;17.852;2024-03-06T10:00:44;2.63;;;1.90;;
12122;SDS011;6125;59.628;17.852;2024-03-06T10:03:21;11.63;;;2.33;;
12122;SDS011;6125;59.628;17.852;2024-03-06T10:05:55;8.77;;;2.47;;
12122;SDS011;6125;59.628;17.852;2024-03-06T10:08:35;5.23;;;1.90;;
12122;SDS011;6125;59.628;17.852;2024-03-06T10:11:08;18.10;;;3.47;;
12122;SDS011;6125;59.628;17.852;2024-03-06T10:13:49;10.17;;;2.10;;
12122;SDS011;6125;59.628;17.852;2024-03-06T10:16:21;4.17;;;2.20;;
12122;SDS011;6125;59.628;17.852;2024-03-06T10:18:57;3.53;;;1.90;;
12122;SDS011;6125;59.628;17.852;2024-03-06T10:21:46;5.00;;;2.20;;
12122;SDS011;6125;59.628;17.852;2024-03-06T10:24:26;6.43;;;1.90;;
12122;SDS011;6125;59.628;17.852;2024-03-06T10:27:00;3.77;;;1.87;;
12122;SDS011;6125;59.628;17.852;2024-03-06T10:29:35;9.57;;;3.30;;
12122;SDS011;6125;59.628;17.852;2024-03-06T10:32:09;9.30;;;2.47;;
12122;SDS011;6125;59.628;17.852;2024-03-06T10:34:45;22.43;;;3.50;;
12122;SDS011;6125;59.628;17.852;2024-03-06T10:37:16;5.10;;;2.00;;
12122;SDS011;6125;59.628;17.852;2024-03-06T10:39:44;3.57;;;2.03;;
12122;SDS011;6125;59.628;17.852;2024-03-06T10:42:31;6.07;;;2.53;;
12122;SDS011;6125;59.628;17.852;2024-03-06T10:45:03;15.83;;;2.50;;
12122;SDS011;6125;59.628;17.852;2024-03-06T10:47:45;3.30;;;2.00;;
12122;SDS011;6125;59.628;17.852;2024-03-06T10:50:19;10.57;;;2.40;;
12122;SDS011;6125;59.628;17.852;2024-03-06T10:52:55;11.23;;;2.57;;
12122;SDS011;6125;59.628;17.852;2024-03-06T10:55:26;4.47;;;2.30;;
12122;SDS011;6125;59.628;17.852;2024-03-06T10:58:03;7.33;;;2.23;;
12122;SDS011;6125;59.628;17.852;2024-03-06T11:00:36;3.90;;;2.40;;
12122;SDS011;6125;59.628;17.852;2024-03-06T11:03:14;5.80;;;1.90;;
12122;SDS011;6125;59.628;17.852;2024-03-06T11:05:43;4.20;;;2.57;;
12122;SDS011;6125;59.628;17.852;2024-03-06T11:08:21;2.93;;;1.90;;
12122;SDS011;6125;59.628;17.852;2024-03-06T11:10:53;12.10;;;2.47;;
12122;SDS011;6125;59.628;17.852;2024-03-06T11:13:54;5.27;;;1.73;;
12122;SDS011;6125;59.628;17.852;2024-03-06T11:16:28;7.00;;;2.30;;
12122;SDS011;6125;59.628;17.852;2024-03-06T11:19:11;5.27;;;2.20;;
12122;SDS011;6125;59.628;17.852;2024-03-06T11:21:45;6.33;;;1.93;;
12122;SDS011;6125;59.628;17.852;2024-03-06T11:24:31;18.60;;;3.70;;
12122;SDS011;6125;59.628;17.852;2024-03-06T11:27:03;5.30;;;2.00;;
12122;SDS011;6125;59.628;17.852;2024-03-06T11:32:58;46.50;;;5.60;;
12122;SDS011;6125;59.628;17.852;2024-03-06T11:35:35;3.83;;;1.80;;
12122;SDS011;6125;59.628;17.852;2024-03-06T11:38:04;6.33;;;2.07;;
12122;SDS011;6125;59.628;17.852;2024-03-06T11:40:43;6.53;;;1.93;;
12122;SDS011;6125;59.628;17.852;2024-03-06T11:43:23;4.67;;;2.10;;
12122;SDS011;6125;59.628;17.852;2024-03-06T11:46:07;12.43;;;2.40;;
12122;SDS011;6125;59.628;17.852;2024-03-06T11:48:40;3.70;;;1.90;;
12122;SDS011;6125;59.628;17.852;2024-03-06T11:51:15;5.87;;;2.20;;
12122;SDS011;6125;59.628;17.852;2024-03-06T11:53:52;8.07;;;2.17;;
12122;SDS011;6125;59.628;17.852;2024-03-06T11:56:34;4.37;;;1.93;;
12122;SDS011;6125;59.628;17.852;2024-03-06T11:59:05;4.43;;;1.87;;
12122;SDS011;6125;59.628;17.852;2024-03-06T12:01:41;3.50;;;1.73;;
12122;SDS011;6125;59.628;17.852;2024-03-06T12:04:12;6.10;;;2.00;;
12122;SDS011;6125;59.628;17.852;2024-03-06T12:06:49;8.63;;;2.07;;
12122;SDS011;6125;59.628;17.852;2024-03-06T12:09:19;7.40;;;2.43;;
12122;SDS011;6125;59.628;17.852;2024-03-06T12:11:47;6.03;;;1.93;;
12122;SDS011;6125;59.628;17.852;2024-03-06T12:14:23;4.23;;;1.80;;
12122;SDS011;6125;59.628;17.852;2024-03-06T12:16:54;19.70;;;3.27;;
12122;SDS011;6125;59.628;17.852;2024-03-06T12:19:33;4.20;;;1.90;;
12122;SDS011;6125;59.628;17.852;2024-03-06T12:22:11;16.20;;;3.20;;
12122;SDS011;6125;59.628;17.852;2024-03-06T12:24:51;12.80;;;2.30;;
12122;SDS011;6125;59.628;17.852;2024-03-06T12:27:28;6.00;;;1.90;;
12122;SDS011;6125;59.628;17.852;2024-03-06T12:30:08;15.97;;;2.43;;
12122;SDS011;6125;59.628;17.852;2024-03-06T12:32:55;6.93;;;2.33;;
12122;SDS011;6125;59.628;17.852;2024-03-06T12:35:32;10.97;;;2.57;;
12122;SDS011;6125;59.628;17.852;2024-03-06T12:38:11;17.50;;;2.67;;
12122;SDS011;6125;59.628;17.852;2024-03-06T12:40:50;8.47;;;2.57;;
12122;SDS011;6125;59.628;17.852;2024-03-06T12:43:23;14.53;;;2.43;;
12122;SDS011;6125;59.628;17.852;2024-03-06T12:46:01;5.00;;;1.97;;
12122;SDS011;6125;59.628;17.852;2024-03-06T12:48:33;4.37;;;1.90;;
12122;SDS011;6125;59.628;17.852;2024-03-06T12:51:02;6.83;;;2.33;;
12122;SDS011;6125;59.628;17.852;2024-03-06T12:53:41;10.47;;;2.97;;
12122;SDS011;6125;59.628;17.852;2024-03-06T12:56:10;4.97;;;1.83;;
12122;SDS011;6125;59.628;17.852;2024-03-06T12:58:38;3.17;;;1.83;;
12122;SDS011;6125;59.628;17.852;2024-03-06T13:01:15;10.13;;;2.50;;
12122;SDS011;6125;59.628;17.852;2024-03-06T13:03:43;3.87;;;1.83;;
12122;SDS011;6125;59.628;17.852;2024-03-06T13:06:13;5.57;;;1.93;;
12122;SDS011;6125;59.628;17.852;2024-03-06T13:08:47;5.77;;;1.80;;
12122;SDS011;6125;59.628;17.852;2024-03-06T13:11:19;9.33;;;2.23;;
12122;SDS011;6125;59.628;17.852;2024-03-06T13:14:00;8.17;;;1.90;;
12122;SDS011;6125;59.628;17.852;2024-03-06T13:16:31;3.07;;;2.00;;
12122;SDS011;6125;59.628;17.852;2024-03-06T13:18:59;5.33;;;1.80;;
12122;SDS011;6125;59.628;17.852;2024-03-06T13:21:37;6.27;;;1.80;;
12122;SDS011;6125;59.628;17.852;2024-03-06T13:24:05;6.30;;;2.20;;
12122;SDS011;6125;59.628;17.852;2024-03-06T13:26:44;2.93;;;2.47;;
12122;SDS011;6125;59.628;17.852;2024-03-06T13:29:13;1.93;;;1.60;;
12122;SDS011;6125;59.628;17.852;2024-03-06T13:31:41;6.30;;;2.17;;
12122;SDS011;6125;59.628;17.852;2024-03-06T13:34:15;3.47;;;1.57;;
12122;SDS011;6125;59.628;17.852;2024-03-06T13:36:48;7.50;;;2.27;;
12122;SDS011;6125;59.628;17.852;2024-03-06T13:39:22;8.43;;;2.40;;
12122;SDS011;6125;59.628;17.852;2024-03-06T13:41:55;4.73;;;2.27;;
12122;SDS011;6125;59.628;17.852;2024-03-06T13:44:33;13.50;;;3.17;;
12122;SDS011;6125;59.628;17.852;2024-03-06T13:47:04;5.50;;;2.17;;
12122;SDS011;6125;59.628;17.852;2024-03-06T13:49:41;4.87;;;2.60;;
12122;SDS011;6125;59.628;17.852;2024-03-06T13:52:16;9.87;;;2.57;;
12122;SDS011;6125;59.628;17.852;2024-03-06T13:54:56;28.67;;;4.00;;
12122;SDS011;6125;59.628;17.852;2024-03-06T13:57:30;9.03;;;2.63;;
12122;SDS011;6125;59.628;17.852;2024-03-06T14:00:14;7.80;;;2.60;;
12122;SDS011;6125;59.628;17.852;2024-03-06T14:02:47;5.77;;;1.83;;
12122;SDS011;6125;59.628;17.852;2024-03-06T14:05:22;15.77;;;4.30;;
12122;SDS011;6125;59.628;17.852;2024-03-06T14:07:56;12.57;;;2.50;;
12122;SDS011;6125;59.628;17.852;2024-03-06T14:10:33;6.13;;;2.00;;
12122;SDS011;6125;59.628;17.852;2024-03-06T14:13:04;16.83;;;2.67;;
12122;SDS011;6125;59.628;17.852;2024-03-06T14:15:40;7.47;;;2.10;;
12122;SDS011;6125;59.628;17.852;2024-03-06T14:18:11;11.70;;;2.43;;
12122;SDS011;6125;59.628;17.852;2024-03-06T14:20:54;3.60;;;1.80;;
12122;SDS011;6125;59.628;17.852;2024-03-06T14:23:27;7.90;;;2.20;;
12122;SDS011;6125;59.628;17.852;2024-03-06T14:26:03;13.00;;;2.43;;
12122;SDS011;6125;59.628;17.852;2024-03-06T14:28:32;4.27;;;1.73;;
12122;SDS011;6125;59.628;17.852;2024-03-06T14:31:00;10.77;;;2.20;;
12122;SDS011;6125;59.628;17.852;2024-03-06T14:33:35;3.67;;;1.90;;
12122;SDS011;6125;59.628;17.852;2024-03-06T14:36:07;10.37;;;2.40;;
12122;SDS011;6125;59.628;17.852;2024-03-06T14:38:39;14.50;;;2.80;;
12122;SDS011;6125;59.628;17.852;2024-03-06T14:41:14;4.70;;;1.67;;
12122;SDS011;6125;59.628;17.852;2024-03-06T14:43:42;3.77;;;1.70;;
12122;SDS011;6125;59.628;17.852;2024-03-06T14:46:12;30.63;;;6.00;;
12122;SDS011;6125;59.628;17.852;2024-03-06T14:48:53;5.47;;;2.20;;
12122;SDS011;6125;59.628;17.852;2024-03-06T14:51:23;5.63;;;1.70;;
12122;SDS011;6125;59.628;17.852;2024-03-06T14:54:00;3.57;;;1.70;;
12122;SDS011;6125;59.628;17.852;2024-03-06T14:56:32;6.03;;;2.00;;
12122;SDS011;6125;59.628;17.852;2024-03-06T14:59:08;13.13;;;2.67;;
12122;SDS011;6125;59.628;17.852;2024-03-06T15:01:37;7.13;;;2.70;;
12122;SDS011;6125;59.628;17.852;2024-03-06T15:04:20;12.77;;;2.20;;
12122;SDS011;6125;59.628;17.852;2024-03-06T15:06:50;14.97;;;2.87;;
12122;SDS011;6125;59.628;17.852;2024-03-06T15:09:27;3.00;;;1.53;;
12122;SDS011;6125;59.628;17.852;2024-03-06T15:11:55;2.33;;;1.60;;
12122;SDS011;6125;59.628;17.852;2024-03-06T15:14:33;11.13;;;2.23;;
12122;SDS011;6125;59.628;17.852;2024-03-06T15:17:18;6.43;;;2.43;;
12122;SDS011;6125;59.628;17.852;2024-03-06T15:19:57;6.23;;;1.77;;
12122;SDS011;6125;59.628;17.852;2024-03-06T15:22:26;4.83;;;2.00;;
12122;SDS011;6125;59.628;17.852;2024-03-06T15:25:03;19.07;;;2.60;;
12122;SDS011;6125;59.628;17.852;2024-03-06T15:27:33;9.57;;;5.50;;
12122;SDS011;6125;59.628;17.852;2024-03-06T15:30:09;10.80;;;4.20;;
12122;SDS011;6125;59.628;17.852;2024-03-06T15:32:44;12.47;;;3.03;;
12122;SDS011;6125;59.628;17.852;2024-03-06T15:35:24;7.83;;;2.83;;
12122;SDS011;6125;59.628;17.852;2024-03-06T15:38:00;21.63;;;3.10;;
12122;SDS011;6125;59.628;17.852;2024-03-06T15:40:38;16.43;;;4.07;;
12122;SDS011;6125;59.628;17.852;2024-03-06T15:43:09;21.77;;;3.53;;